Time,TemperatureF,DewpointF,PressureIn,WindDirection,WindDirectionDegrees,WindSpeedMPH,WindSpeedGustMPH,Humidity,HourlyPrecipIn,Conditions,Clouds,dailyrainin,SoftwareType,DateUTC
2013-04-28 00:08:00,47.9,46.0,30.10,NE,51,4.0,5.0,94,0.00,,,0.00,weatherlink.com 1.10,2013-04-28 04:08:00,
2013-04-28 00:23:00,47.8,46.0,30.10,NE,46,3.0,4.0,94,0.00,,,0.00,weatherlink.com 1.10,2013-04-28 04:23:00,
2013-04-28 00:38:00,48.1,47.0,30.09,NNE,29,0.0,3.0,94,0.02,,,0.02,weatherlink.com 1.10,2013-04-28 04:38:00,
2013-04-28 00:53:00,48.8,47.0,30.09,NE,34,2.0,5.0,92,0.03,,,0.03,weatherlink.com 1.10,2013-04-28 04:53:00,
2013-04-28 01:08:00,50.2,47.0,30.09,NW,315,4.0,13.0,88,0.03,,,0.03,weatherlink.com 1.10,2013-04-28 05:08:00,
2013-04-28 01:23:00,50.7,47.0,30.10,South,189,4.0,12.0,86,0.03,,,0.03,weatherlink.com 1.10,2013-04-28 05:23:00,
2013-04-28 01:38:00,50.7,47.0,30.09,South,179,3.0,16.0,86,0.01,,,0.03,weatherlink.com 1.10,2013-04-28 05:38:00,
2013-04-28 01:53:00,50.4,47.0,30.08,WNW,297,6.0,9.0,88,0.00,,,0.03,weatherlink.com 1.10,2013-04-28 05:53:00,
2013-04-28 02:08:00,50.0,47.0,30.07,SSE,160,1.0,10.0,89,0.00,,,0.03,weatherlink.com 1.10,2013-04-28 06:08:00,
2013-04-28 02:23:00,49.8,47.0,30.06,ESE,113,4.0,7.0,89,0.00,,,0.03,weatherlink.com 1.10,2013-04-28 06:23:00,
2013-04-28 02:38:00,49.6,47.0,30.05,NE,50,5.0,9.0,89,0.00,,,0.03,weatherlink.com 1.10,2013-04-28 06:38:00,
2013-04-28 02:53:00,49.4,46.0,30.05,NNE,23,0.0,3.0,88,0.00,,,0.03,weatherlink.com 1.10,2013-04-28 06:53:00,
2013-04-28 03:08:00,49.6,46.0,30.04,North,9,5.0,7.0,88,0.00,,,0.03,weatherlink.com 1.10,2013-04-28 07:08:00,
2013-04-28 03:23:00,49.4,46.0,30.04,WNW,290,3.0,8.0,87,0.00,,,0.03,weatherlink.com 1.10,2013-04-28 07:23:00,
2013-04-28 03:38:00,49.6,46.0,30.03,North,7,1.0,5.0,87,0.00,,,0.03,weatherlink.com 1.10,2013-04-28 07:38:00,
2013-04-28 03:53:00,49.5,46.0,30.04,SSE,148,2.0,9.0,87,0.00,,,0.03,weatherlink.com 1.10,2013-04-28 07:53:00,
2013-04-28 04:08:00,49.5,46.0,30.03,ESE,110,0.0,7.0,87,0.00,,,0.03,weatherlink.com 1.10,2013-04-28 08:08:00,
2013-04-28 04:23:00,49.6,46.0,30.02,SSE,158,1.0,5.0,87,0.00,,,0.03,weatherlink.com 1.10,2013-04-28 08:23:00,
2013-04-28 04:38:00,49.5,46.0,30.02,NNW,336,2.0,6.0,88,0.00,,,0.03,weatherlink.com 1.10,2013-04-28 08:38:00,
2013-04-28 04:53:00,49.2,46.0,30.02,SSW,205,1.0,4.0,89,0.00,,,0.03,weatherlink.com 1.10,2013-04-28 08:53:00,
2013-04-28 05:08:00,49.5,46.0,30.02,ENE,69,4.0,5.0,88,0.00,,,0.03,weatherlink.com 1.10,2013-04-28 09:08:00,
2013-04-28 05:23:00,49.7,46.0,30.01,ENE,63,4.0,5.0,87,0.00,,,0.03,weatherlink.com 1.10,2013-04-28 09:23:00,
2013-04-28 05:38:00,49.6,46.0,30.01,NE,37,9.0,11.0,87,0.00,,,0.03,weatherlink.com 1.10,2013-04-28 09:38:00,
2013-04-28 05:53:00,50.0,46.0,30.00,East,89,0.0,7.0,86,0.00,,,0.03,weatherlink.com 1.10,2013-04-28 09:53:00,
2013-04-28 06:08:00,50.1,46.0,30.00,East,81,3.0,8.0,86,0.00,,,0.03,weatherlink.com 1.10,2013-04-28 10:08:00,
2013-04-28 06:23:00,50.1,46.0,30.00,NE,46,3.0,8.0,87,0.00,,,0.03,weatherlink.com 1.10,2013-04-28 10:23:00,
2013-04-28 06:38:00,49.7,47.0,30.01,SSE,162,0.0,4.0,90,0.01,,,0.04,weatherlink.com 1.10,2013-04-28 10:38:00,
2013-04-28 06:53:00,49.3,47.0,30.01,NW,323,0.0,7.0,91,0.02,,,0.05,weatherlink.com 1.10,2013-04-28 10:53:00,
2013-04-28 07:09:00,49.7,47.0,30.01,SE,125,5.0,9.0,91,0.05,,,0.08,weatherlink.com 1.10,2013-04-28 11:09:00,
2013-04-28 07:24:00,49.8,48.0,30.01,NNE,20,1.0,5.0,92,0.06,,,0.09,weatherlink.com 1.10,2013-04-28 11:24:00,
2013-04-28 07:39:00,49.5,47.0,30.03,North,11,1.0,4.0,92,0.08,,,0.12,weatherlink.com 1.10,2013-04-28 11:39:00,
2013-04-28 07:54:00,49.4,48.0,30.05,ENE,74,6.0,7.0,93,0.08,,,0.13,weatherlink.com 1.10,2013-04-28 11:54:00,
2013-04-28 08:09:00,48.8,47.0,30.05,NNW,346,3.0,4.0,93,0.05,,,0.13,weatherlink.com 1.10,2013-04-28 12:09:00,
2013-04-28 08:24:00,48.1,47.0,30.07,NNW,338,2.0,3.0,95,0.07,,,0.16,weatherlink.com 1.10,2013-04-28 12:24:00,
2013-04-28 08:39:00,48.6,47.0,30.08,South,188,1.0,9.0,93,0.11,,,0.23,weatherlink.com 1.10,2013-04-28 12:39:00,
2013-04-28 08:54:00,49.1,46.0,30.06,North,11,0.0,9.0,90,0.16,,,0.29,weatherlink.com 1.10,2013-04-28 12:54:00,
2013-04-28 09:09:00,48.7,47.0,30.06,NE,41,0.0,3.0,93,0.17,,,0.30,weatherlink.com 1.10,2013-04-28 13:09:00,
2013-04-28 09:24:00,48.1,47.0,30.05,NE,49,0.0,3.0,94,0.15,,,0.32,weatherlink.com 1.10,2013-04-28 13:24:00,
2013-04-28 09:39:00,47.8,47.0,30.04,NE,49,0.0,1.0,96,0.09,,,0.33,weatherlink.com 1.10,2013-04-28 13:39:00,
2013-04-28 09:54:00,47.3,46.0,30.05,NE,49,0.0,2.0,96,0.06,,,0.35,weatherlink.com 1.10,2013-04-28 13:54:00,
2013-04-28 10:09:00,47.2,46.0,30.05,NE,49,0.0,4.0,97,0.08,,,0.38,weatherlink.com 1.10,2013-04-28 14:09:00,
2013-04-28 10:24:00,47.9,47.0,30.05,SSW,199,5.0,5.0,95,0.12,,,0.44,weatherlink.com 1.10,2013-04-28 14:24:00,
2013-04-28 10:39:00,48.7,47.0,30.05,SE,146,0.0,2.0,93,0.15,,,0.48,weatherlink.com 1.10,2013-04-28 14:39:00,
2013-04-28 10:54:00,48.9,47.0,30.05,NE,46,0.0,4.0,93,0.18,,,0.53,weatherlink.com 1.10,2013-04-28 14:54:00,
2013-04-28 11:09:00,48.7,47.0,30.06,North,6,0.0,3.0,95,0.20,,,0.58,weatherlink.com 1.10,2013-04-28 15:09:00,
2013-04-28 11:24:00,48.3,47.0,30.06,North,6,0.0,0.0,95,0.18,,,0.62,weatherlink.com 1.10,2013-04-28 15:24:00,
2013-04-28 11:39:00,47.8,47.0,30.06,North,6,0.0,1.0,97,0.17,,,0.65,weatherlink.com 1.10,2013-04-28 15:39:00,
2013-04-28 11:54:00,47.6,47.0,30.06,North,6,0.0,0.0,97,0.14,,,0.67,weatherlink.com 1.10,2013-04-28 15:54:00,
2013-04-28 12:09:00,47.7,47.0,30.05,North,6,0.0,2.0,97,0.13,,,0.71,weatherlink.com 1.10,2013-04-28 16:09:00,
2013-04-28 12:24:00,47.6,47.0,30.05,NNW,335,0.0,3.0,98,0.11,,,0.73,weatherlink.com 1.10,2013-04-28 16:24:00,
2013-04-28 12:39:00,47.9,47.0,30.05,NNW,335,1.0,2.0,98,0.09,,,0.74,weatherlink.com 1.10,2013-04-28 16:39:00,
2013-04-28 12:54:00,47.8,47.0,30.04,NNW,335,0.0,2.0,98,0.09,,,0.76,weatherlink.com 1.10,2013-04-28 16:54:00,
2013-04-28 13:09:00,48.1,48.0,30.04,NNW,335,0.0,2.0,98,0.06,,,0.77,weatherlink.com 1.10,2013-04-28 17:09:00,
2013-04-28 13:24:00,48.1,48.0,30.03,SW,218,0.0,4.0,98,0.05,,,0.78,weatherlink.com 1.10,2013-04-28 17:24:00,
2013-04-28 13:39:00,48.2,48.0,30.02,WSW,243,2.0,3.0,98,0.04,,,0.78,weatherlink.com 1.10,2013-04-28 17:39:00,
2013-04-28 13:54:00,48.1,48.0,30.02,West,264,0.0,2.0,98,0.03,,,0.79,weatherlink.com 1.10,2013-04-28 17:54:00,
2013-04-28 14:09:00,48.1,48.0,30.00,NW,304,0.0,3.0,98,0.03,,,0.80,weatherlink.com 1.10,2013-04-28 18:09:00,
2013-04-28 14:24:00,48.0,48.0,30.00,SSW,203,1.0,5.0,98,0.02,,,0.80,weatherlink.com 1.10,2013-04-28 18:24:00,
2013-04-28 14:39:00,47.9,47.0,30.00,North,1,0.0,4.0,98,0.03,,,0.81,weatherlink.com 1.10,2013-04-28 18:39:00,
2013-04-28 14:54:00,48.0,48.0,30.02,North,351,0.0,3.0,98,0.07,,,0.86,weatherlink.com 1.10,2013-04-28 18:54:00,
2013-04-28 15:09:00,48.2,48.0,30.01,ENE,60,1.0,1.0,98,0.10,,,0.90,weatherlink.com 1.10,2013-04-28 19:09:00,
2013-04-28 15:24:00,48.2,48.0,30.01,ENE,60,0.0,0.0,98,0.14,,,0.94,weatherlink.com 1.10,2013-04-28 19:24:00,
2013-04-28 15:39:00,48.3,48.0,30.00,ENE,60,1.0,1.0,98,0.18,,,0.99,weatherlink.com 1.10,2013-04-28 19:39:00,
2013-04-28 15:54:00,48.1,48.0,29.99,ENE,60,0.0,0.0,98,0.22,,,1.08,weatherlink.com 1.10,2013-04-28 19:54:00,
2013-04-28 16:09:00,48.1,48.0,29.99,ENE,60,0.0,1.0,98,0.24,,,1.14,weatherlink.com 1.10,2013-04-28 20:09:00,
2013-04-28 16:24:00,48.3,48.0,29.98,ENE,60,0.0,1.0,99,0.23,,,1.17,weatherlink.com 1.10,2013-04-28 20:24:00,
2013-04-28 16:39:00,48.6,48.0,29.98,ENE,60,0.0,0.0,99,0.19,,,1.18,weatherlink.com 1.10,2013-04-28 20:39:00,
2013-04-28 16:54:00,48.6,48.0,29.98,ENE,60,0.0,0.0,99,0.10,,,1.19,weatherlink.com 1.10,2013-04-28 20:54:00,
2013-04-28 17:09:00,48.7,49.0,29.98,ENE,60,1.0,1.0,99,0.06,,,1.20,weatherlink.com 1.10,2013-04-28 21:09:00,
2013-04-28 17:24:00,48.7,49.0,29.98,ENE,60,0.0,1.0,99,0.04,,,1.21,weatherlink.com 1.10,2013-04-28 21:24:00,
2013-04-28 17:39:00,48.7,49.0,29.99,ENE,60,0.0,2.0,99,0.04,,,1.22,weatherlink.com 1.10,2013-04-28 21:39:00,
2013-04-28 17:54:00,48.6,48.0,29.99,ENE,60,1.0,1.0,99,0.05,,,1.24,weatherlink.com 1.10,2013-04-28 21:54:00,
2013-04-28 18:09:00,48.6,48.0,29.99,ENE,60,0.0,0.0,99,0.06,,,1.26,weatherlink.com 1.10,2013-04-28 22:09:00,
2013-04-28 18:24:00,48.7,49.0,29.98,ENE,60,0.0,2.0,99,0.07,,,1.28,weatherlink.com 1.10,2013-04-28 22:24:00,
2013-04-28 18:39:00,48.7,49.0,29.99,NE,38,0.0,3.0,99,0.08,,,1.30,weatherlink.com 1.10,2013-04-28 22:39:00,
2013-04-28 18:54:00,49.2,49.0,29.99,SSW,195,1.0,5.0,99,0.08,,,1.32,weatherlink.com 1.10,2013-04-28 22:54:00,
2013-04-28 19:09:00,49.6,49.0,29.98,ESE,121,2.0,5.0,97,0.07,,,1.33,weatherlink.com 1.10,2013-04-28 23:09:00,
2013-04-28 19:24:00,50.0,48.0,29.95,ESE,110,1.0,5.0,93,0.06,,,1.34,weatherlink.com 1.10,2013-04-28 23:24:00,
2013-04-28 19:39:00,50.0,48.0,29.94,SSW,205,0.0,5.0,93,0.04,,,1.34,weatherlink.com 1.10,2013-04-28 23:39:00,
2013-04-28 19:54:00,50.0,48.0,29.94,NNW,346,2.0,6.0,92,0.02,,,1.34,weatherlink.com 1.10,2013-04-28 23:54:00,
2013-04-28 20:10:00,50.3,47.0,29.93,NW,308,3.0,7.0,89,0.01,,,1.34,weatherlink.com 1.10,2013-04-29 00:10:00,
2013-04-28 20:25:00,50.6,47.0,29.93,NW,317,5.0,6.0,88,0.00,,,1.34,weatherlink.com 1.10,2013-04-29 00:25:00,
2013-04-28 20:40:00,50.5,47.0,29.90,West,264,2.0,5.0,87,0.01,,,1.35,weatherlink.com 1.10,2013-04-29 00:40:00,
2013-04-28 20:55:00,51.2,47.0,29.90,NNE,16,3.0,7.0,86,0.01,,,1.35,weatherlink.com 1.10,2013-04-29 00:55:00,
2013-04-28 21:10:00,50.8,47.0,29.92,North,359,0.0,5.0,87,0.01,,,1.35,weatherlink.com 1.10,2013-04-29 01:10:00,
2013-04-28 21:25:00,50.8,47.0,29.88,NE,38,2.0,4.0,87,0.01,,,1.35,weatherlink.com 1.10,2013-04-29 01:25:00,
2013-04-28 21:40:00,52.0,47.0,29.91,NE,52,2.0,10.0,84,0.00,,,1.35,weatherlink.com 1.10,2013-04-29 01:40:00,
2013-04-28 21:55:00,52.2,47.0,29.90,NW,316,5.0,6.0,82,0.00,,,1.35,weatherlink.com 1.10,2013-04-29 01:55:00,
2013-04-28 22:10:00,52.6,47.0,29.92,NNE,30,4.0,9.0,82,0.00,,,1.35,weatherlink.com 1.10,2013-04-29 02:10:00,
2013-04-28 22:25:00,52.3,46.0,29.93,South,185,5.0,6.0,80,0.00,,,1.35,weatherlink.com 1.10,2013-04-29 02:25:00,
2013-04-28 22:40:00,52.6,47.0,29.94,South,173,3.0,9.0,80,0.00,,,1.35,weatherlink.com 1.10,2013-04-29 02:40:00,
2013-04-28 22:55:00,52.7,47.0,29.93,SSW,203,5.0,5.0,80,0.00,,,1.35,weatherlink.com 1.10,2013-04-29 02:55:00,
2013-04-28 23:10:00,52.4,47.0,29.94,NNE,30,3.0,6.0,82,0.00,,,1.35,weatherlink.com 1.10,2013-04-29 03:10:00,
2013-04-28 23:25:00,51.9,47.0,29.95,SSE,151,0.0,5.0,83,0.00,,,1.35,weatherlink.com 1.10,2013-04-29 03:25:00,
2013-04-28 23:40:00,51.7,47.0,29.95,NNE,28,0.0,3.0,85,0.00,,,1.35,weatherlink.com 1.10,2013-04-29 03:40:00,
2013-04-28 23:55:00,51.3,48.0,29.95,NNE,23,1.0,4.0,87,0.00,,,1.35,weatherlink.com 1.10,2013-04-29 03:55:00,